Time;durP1;ratioP1;P1;durP2;ratioP2;P2;SDS_P1;SDS_P2;PMS_P1;PMS_P2;Temp;Humidity;BMP_temperature;BMP_pressure;BME280_temperature;BME280_humidity;BME280_pressure;Samples;Min_cycle;Max_cycle;Signal;HPM_P1;HPM_P2
2023/01/18 00:01:50;;;;;;;4.05;3.75;;;;;;;;;;5077574;28;20200;-68
2023/01/18 00:04:17;;;;;;;4.30;3.90;;;;;;;;;;5077466;28;20196;-68
2023/01/18 00:06:46;;;;;;;4.10;3.80;;;;;;;;;;5078474;28;20266;-68
2023/01/18 00:09:16;;;;;;;4.00;3.70;;;;;;;;;;5078411;28;20254;-68
2023/01/18 00:11:43;;;;;;;4.50;4.10;;;;;;;;;;5078508;28;20257;-68
2023/01/18 00:14:11;;;;;;;4.10;3.80;;;;;;;;;;5078028;28;20596;-68
2023/01/18 00:16:39;;;;;;;4.43;3.97;;;;;;;;;;5077995;28;20350;-68
2023/01/18 00:19:11;;;;;;;4.32;3.92;;;;;;;;;;5078210;28;20204;-68
2023/01/18 00:21:39;;;;;;;4.18;3.78;;;;;;;;;;5078255;28;20236;-68
2023/01/18 00:24:09;;;;;;;4.30;3.90;;;;;;;;;;5077594;28;20212;-68
2023/01/18 00:26:39;;;;;;;4.50;4.10;;;;;;;;;;5077449;28;20691;-68
2023/01/18 00:29:09;;;;;;;4.60;4.20;;;;;;;;;;5077503;28;20204;-68
2023/01/18 00:31:36;;;;;;;4.28;3.88;;;;;;;;;;5078256;28;20215;-68
2023/01/18 00:34:04;;;;;;;4.05;3.75;;;;;;;;;;5077886;28;20215;-68
2023/01/18 00:36:32;;;;;;;4.63;4.22;;;;;;;;;;5076713;28;20224;-68
2023/01/18 00:39:00;;;;;;;4.70;4.30;;;;;;;;;;5077456;28;20220;-68
2023/01/18 00:41:27;;;;;;;4.28;3.88;;;;;;;;;;5077647;28;20588;-68
2023/01/18 00:43:56;;;;;;;4.90;4.50;;;;;;;;;;5077775;28;20285;-68
2023/01/18 00:46:24;;;;;;;4.70;4.30;;;;;;;;;;5076929;28;20196;-68
2023/01/18 00:48:52;;;;;;;4.97;4.53;;;;;;;;;;5077076;28;20291;-68
2023/01/18 00:51:22;;;;;;;4.95;4.50;;;;;;;;;;5078002;28;20619;-68
2023/01/18 00:53:50;;;;;;;4.40;4.00;;;;;;;;;;5077521;28;20597;-68
2023/01/18 00:56:22;;;;;;;4.50;4.10;;;;;;;;;;5077221;28;20675;-68
2023/01/18 00:58:50;;;;;;;4.60;4.20;;;;;;;;;;5077499;28;20204;-68
2023/01/18 01:01:19;;;;;;;4.65;4.25;;;;;;;;;;5077348;28;20216;-68
2023/01/18 01:06:45;;;;;;;4.70;4.30;;;;;;;;;;5076921;28;20200;-68
2023/01/18 01:09:13;;;;;;;4.45;4.05;;;;;;;;;;5077351;28;20239;-68
2023/01/18 01:12:31;;;;;;;4.90;4.50;;;;;;;;;;5077131;28;20223;-68
2023/01/18 01:28:16;;;;;;;5.10;4.60;;;;;;;;;;5076877;28;20199;-68
2023/01/18 01:30:44;;;;;;;5.38;4.88;;;;;;;;;;5077360;28;20211;-68
2023/01/18 01:33:13;;;;;;;4.95;4.55;;;;;;;;;;5077046;28;20277;-68
2023/01/18 01:35:41;;;;;;;5.05;4.57;;;;;;;;;;5076820;28;20354;-68
2023/01/18 01:38:09;;;;;;;4.70;4.30;;;;;;;;;;5076611;28;20297;-68
2023/01/18 01:40:36;;;;;;;4.70;4.30;;;;;;;;;;5075905;28;20204;-68
2023/01/18 01:43:04;;;;;;;5.47;4.97;;;;;;;;;;5076908;28;20254;-68
2023/01/18 01:45:32;;;;;;;4.78;4.38;;;;;;;;;;5077199;28;20561;-68
2023/01/18 01:48:00;;;;;;;5.15;4.70;;;;;;;;;;5077235;28;20521;-68
2023/01/18 01:50:32;;;;;;;5.22;4.72;;;;;;;;;;5077120;28;20249;-68
2023/01/18 01:53:00;;;;;;;5.32;4.82;;;;;;;;;;5077206;28;20211;-68
2023/01/18 01:55:31;;;;;;;4.80;4.40;;;;;;;;;;5076805;28;20235;-68
2023/01/18 01:58:01;;;;;;;4.63;4.22;;;;;;;;;;5077049;28;20204;-68
2023/01/18 02:00:28;;;;;;;5.38;4.90;;;;;;;;;;5076909;28;20197;-68
2023/01/18 02:02:58;;;;;;;4.95;4.53;;;;;;;;;;5076216;28;20254;-68
2023/01/18 02:05:26;;;;;;;4.90;4.50;;;;;;;;;;5075345;28;20201;-68
2023/01/18 02:07:56;;;;;;;5.35;4.85;;;;;;;;;;5076800;28;20201;-68
2023/01/18 02:10:24;;;;;;;4.85;4.45;;;;;;;;;;5076862;28;20308;-68
2023/01/18 02:12:53;;;;;;;4.70;4.30;;;;;;;;;;5076900;28;20205;-68
2023/01/18 02:15:22;;;;;;;4.97;4.47;;;;;;;;;;5076990;28;20205;-68
2023/01/18 02:18:11;;;;;;;5.35;4.85;;;;;;;;;;5079045;28;20266;-68
2023/01/18 02:20:56;;;;;;;4.65;4.22;;;;;;;;;;5075882;28;20205;-68
2023/01/18 02:23:36;;;;;;;5.00;4.50;;;;;;;;;;5080295;28;20204;-68
2023/01/18 02:26:14;;;;;;;5.13;4.63;;;;;;;;;;5080776;28;20597;-68
2023/01/18 02:28:47;;;;;;;4.60;4.20;;;;;;;;;;5080528;28;20596;-68
2023/01/18 02:31:18;;;;;;;5.00;4.47;;;;;;;;;;5080143;28;20208;-68
2023/01/18 02:33:47;;;;;;;4.80;4.40;;;;;;;;;;5080484;28;20208;-68
2023/01/18 02:36:19;;;;;;;4.60;4.20;;;;;;;;;;5080162;28;20228;-68
2023/01/18 02:38:48;;;;;;;4.60;4.20;;;;;;;;;;5080178;28;20224;-68
2023/01/18 02:41:20;;;;;;;4.90;4.50;;;;;;;;;;5080243;28;20558;-68
2023/01/18 02:46:37;;;;;;;4.82;4.43;;;;;;;;;;5079583;28;20223;-68
2023/01/18 02:49:08;;;;;;;4.80;4.40;;;;;;;;;;5080157;28;20223;-68
2023/01/18 02:51:36;;;;;;;5.07;4.57;;;;;;;;;;5079979;28;20537;-68
2023/01/18 02:54:06;;;;;;;4.32;4.00;;;;;;;;;;5079926;28;20727;-68
2023/01/18 02:56:36;;;;;;;4.90;4.50;;;;;;;;;;5079043;28;20227;-68
2023/01/18 02:59:08;;;;;;;5.07;4.57;;;;;;;;;;5079968;28;20243;-68
2023/01/18 03:01:39;;;;;;;4.43;4.03;;;;;;;;;;5079694;28;20214;-68
2023/01/18 03:04:10;;;;;;;4.70;4.30;;;;;;;;;;5079941;28;20208;-68
2023/01/18 03:06:39;;;;;;;4.65;4.25;;;;;;;;;;5079984;28;20207;-68
2023/01/18 03:09:07;;;;;;;4.65;4.25;;;;;;;;;;5080013;28;20207;-68
2023/01/18 03:11:37;;;;;;;4.60;4.20;;;;;;;;;;5079115;28;20208;-68
2023/01/18 03:14:13;;;;;;;4.30;4.00;;;;;;;;;;5079416;28;20205;-68
2023/01/18 03:16:56;;;;;;;4.40;4.00;;;;;;;;;;5079538;28;20832;-68
2023/01/18 03:22:11;;;;;;;4.05;3.67;;;;;;;;;;5078823;28;20238;-68
2023/01/18 03:24:40;;;;;;;4.57;4.18;;;;;;;;;;5078807;28;20584;-68
2023/01/18 03:35:26;;;;;;;4.60;4.20;;;;;;;;;;5078859;28;20196;-68
2023/01/18 03:37:55;;;;;;;4.20;3.90;;;;;;;;;;5078662;28;20269;-68
2023/01/18 03:40:25;;;;;;;4.63;4.22;;;;;;;;;;5079167;28;20212;-68
2023/01/18 03:42:54;;;;;;;4.57;4.18;;;;;;;;;;5078881;28;20228;-68
2023/01/18 03:45:27;;;;;;;4.43;4.10;;;;;;;;;;5079094;28;20212;-68
2023/01/18 03:47:55;;;;;;;4.25;3.85;;;;;;;;;;5079093;28;20204;-68
2023/01/18 03:50:25;;;;;;;4.25;3.95;;;;;;;;;;5078421;28;20204;-68
2023/01/18 03:52:56;;;;;;;4.20;3.80;;;;;;;;;;5078326;28;20532;-68
2023/01/18 03:55:25;;;;;;;4.18;3.88;;;;;;;;;;5078550;28;20599;-68
2023/01/18 03:57:56;;;;;;;4.05;3.75;;;;;;;;;;5078158;28;20258;-68
2023/01/18 04:00:25;;;;;;;3.90;3.60;;;;;;;;;;5079045;28;20502;-68
2023/01/18 04:02:54;;;;;;;4.30;3.90;;;;;;;;;;5078864;28;20572;-68
2023/01/18 04:05:21;;;;;;;3.97;3.67;;;;;;;;;;5078484;28;20204;-68
2023/01/18 04:07:50;;;;;;;3.90;3.60;;;;;;;;;;5078745;28;20201;-68
2023/01/18 04:10:18;;;;;;;3.85;3.55;;;;;;;;;;5078134;28;20316;-68
2023/01/18 04:12:46;;;;;;;3.60;3.30;;;;;;;;;;5078183;28;20592;-68
2023/01/18 04:15:14;;;;;;;3.83;3.53;;;;;;;;;;5078228;28;20794;-68
2023/01/18 04:17:43;;;;;;;3.80;3.50;;;;;;;;;;5078199;28;20228;-68
2023/01/18 04:20:11;;;;;;;3.88;3.50;;;;;;;;;;5077880;28;20545;-68
2023/01/18 04:22:39;;;;;;;4.10;3.80;;;;;;;;;;5077588;28;20270;-68
2023/01/18 04:25:08;;;;;;;3.85;3.55;;;;;;;;;;5077891;28;20204;-68
2023/01/18 04:27:35;;;;;;;4.20;3.80;;;;;;;;;;5077537;28;20266;-68
2023/01/18 04:30:05;;;;;;;3.67;3.38;;;;;;;;;;5078226;28;20204;-68
2023/01/18 04:32:32;;;;;;;3.97;3.67;;;;;;;;;;5077554;28;20561;-68
2023/01/18 04:35:02;;;;;;;3.47;3.17;;;;;;;;;;5077331;28;20211;-68
2023/01/18 04:37:30;;;;;;;3.88;3.58;;;;;;;;;;5077514;28;20232;-68
2023/01/18 04:40:01;;;;;;;3.90;3.60;;;;;;;;;;5077487;28;20204;-67
2023/01/18 04:42:29;;;;;;;3.30;3.00;;;;;;;;;;5077457;28;20204;-68
2023/01/18 04:44:57;;;;;;;3.53;3.22;;;;;;;;;;5077434;28;20216;-68
2023/01/18 04:47:25;;;;;;;3.53;3.22;;;;;;;;;;5077058;28;20226;-68
2023/01/18 04:49:52;;;;;;;3.30;3.10;;;;;;;;;;5057164;28;20205;-68
2023/01/18 04:52:22;;;;;;;3.58;3.28;;;;;;;;;;5057341;28;20205;-68
2023/01/18 04:54:50;;;;;;;3.40;3.10;;;;;;;;;;5057211;28;20211;-68
2023/01/18 04:57:17;;;;;;;3.55;3.25;;;;;;;;;;5056829;28;20240;-68
2023/01/18 04:59:45;;;;;;;3.35;3.05;;;;;;;;;;5057101;28;20546;-68
2023/01/18 05:02:14;;;;;;;3.42;3.13;;;;;;;;;;5056714;28;20205;-68
2023/01/18 05:04:43;;;;;;;3.30;3.00;;;;;;;;;;5057413;28;20580;-68
2023/01/18 05:07:11;;;;;;;3.60;3.30;;;;;;;;;;5056795;28;20208;-68
2023/01/18 05:09:40;;;;;;;3.78;3.47;;;;;;;;;;5057313;28;20205;-68
2023/01/18 05:12:08;;;;;;;3.83;3.47;;;;;;;;;;5056869;28;20227;-68
2023/01/18 05:14:36;;;;;;;2.90;2.70;;;;;;;;;;5057369;28;20326;-68
2023/01/18 05:17:04;;;;;;;3.33;3.03;;;;;;;;;;5056942;28;20224;-68
2023/01/18 05:19:32;;;;;;;3.05;2.85;;;;;;;;;;5057171;28;20247;-68
2023/01/18 05:22:00;;;;;;;3.40;3.10;;;;;;;;;;5056207;28;20228;-68
2023/01/18 05:24:27;;;;;;;3.30;3.00;;;;;;;;;;5057012;28;20205;-68
2023/01/18 05:26:57;;;;;;;3.40;3.10;;;;;;;;;;5056200;28;20216;-68
2023/01/18 05:29:25;;;;;;;3.42;3.13;;;;;;;;;;5055393;28;20487;-68
2023/01/18 05:31:54;;;;;;;7.97;3.20;;;;;;;;;;5056272;28;20320;-68
2023/01/18 05:34:22;;;;;;;3.40;3.10;;;;;;;;;;5055731;28;20212;-68
2023/01/18 05:36:49;;;;;;;3.00;2.80;;;;;;;;;;5055675;28;20256;-68
2023/01/18 05:39:17;;;;;;;3.30;3.00;;;;;;;;;;5055483;28;20201;-68
2023/01/18 05:41:45;;;;;;;3.38;3.08;;;;;;;;;;5055238;28;20216;-68
2023/01/18 05:44:15;;;;;;;3.20;2.90;;;;;;;;;;5055370;28;20296;-68
2023/01/18 05:46:42;;;;;;;3.15;2.95;;;;;;;;;;5055319;28;20255;-68
2023/01/18 05:49:10;;;;;;;3.30;3.00;;;;;;;;;;5055265;28;20219;-69
2023/01/18 05:51:38;;;;;;;3.78;3.10;;;;;;;;;;5055821;28;20209;-68
2023/01/18 05:54:06;;;;;;;2.92;2.72;;;;;;;;;;5059006;28;20593;-68
2023/01/18 05:56:34;;;;;;;4.03;2.78;;;;;;;;;;5058517;28;20621;-68
2023/01/18 05:59:01;;;;;;;3.17;2.88;;;;;;;;;;5058242;28;20240;-68
2023/01/18 06:01:31;;;;;;;2.90;2.70;;;;;;;;;;5058624;28;20270;-68
2023/01/18 06:03:59;;;;;;;3.17;2.88;;;;;;;;;;5058132;28;20217;-68
2023/01/18 06:06:26;;;;;;;3.15;2.92;;;;;;;;;;5057362;28;20227;-68
2023/01/18 06:08:54;;;;;;;3.28;2.88;;;;;;;;;;5057687;28;20201;-68
2023/01/18 06:11:22;;;;;;;3.30;2.92;;;;;;;;;;5057468;28;20201;-68
2023/01/18 06:13:51;;;;;;;2.97;2.67;;;;;;;;;;5058164;28;20216;-68
2023/01/18 06:16:18;;;;;;;2.90;2.60;;;;;;;;;;5057823;28;20255;-68
2023/01/18 06:18:47;;;;;;;3.10;2.90;;;;;;;;;;5056758;28;20230;-68
2023/01/18 06:21:16;;;;;;;2.95;2.72;;;;;;;;;;5057079;28;20205;-68
2023/01/18 06:23:44;;;;;;;3.38;3.08;;;;;;;;;;5056842;28;20248;-68
2023/01/18 06:26:12;;;;;;;3.10;2.90;;;;;;;;;;5057256;28;20309;-68
2023/01/18 06:28:39;;;;;;;3.13;2.70;;;;;;;;;;5057103;28;20211;-68
2023/01/18 06:31:07;;;;;;;3.50;3.20;;;;;;;;;;5056705;28;20216;-68
2023/01/18 06:33:35;;;;;;;2.70;2.50;;;;;;;;;;5057199;28;20204;-68
2023/01/18 06:36:05;;;;;;;3.03;2.83;;;;;;;;;;5056002;28;20205;-68
2023/01/18 06:38:33;;;;;;;2.88;2.67;;;;;;;;;;5056117;28;20220;-68
2023/01/18 06:41:01;;;;;;;3.05;2.85;;;;;;;;;;5057013;28;20204;-68
2023/01/18 06:43:29;;;;;;;3.47;2.95;;;;;;;;;;5056205;28;20216;-68
2023/01/18 06:45:57;;;;;;;2.90;2.60;;;;;;;;;;5056440;28;20456;-68
2023/01/18 06:48:25;;;;;;;2.85;2.65;;;;;;;;;;5056565;28;20565;-68
2023/01/18 06:50:53;;;;;;;2.60;2.40;;;;;;;;;;5055856;28;20270;-69
2023/01/18 06:53:22;;;;;;;2.92;2.50;;;;;;;;;;5056138;28;20197;-68
2023/01/18 06:55:53;;;;;;;2.95;2.75;;;;;;;;;;5055572;28;20654;-68
2023/01/18 06:58:21;;;;;;;3.33;2.70;;;;;;;;;;5056171;28;20221;-68
2023/01/18 07:00:49;;;;;;;2.55;2.25;;;;;;;;;;5056935;28;20244;-68
2023/01/18 07:03:17;;;;;;;2.80;2.60;;;;;;;;;;5055768;28;20257;-68
2023/01/18 07:05:45;;;;;;;3.20;2.90;;;;;;;;;;5057194;28;20300;-68
2023/01/18 07:08:13;;;;;;;2.50;2.30;;;;;;;;;;5056325;28;20263;-68
2023/01/18 07:10:42;;;;;;;2.60;2.40;;;;;;;;;;5057112;28;20204;-68
2023/01/18 07:13:10;;;;;;;2.72;2.53;;;;;;;;;;5056476;28;20201;-68
2023/01/18 07:15:38;;;;;;;2.53;2.33;;;;;;;;;;5055787;28;20215;-68
2023/01/18 07:18:05;;;;;;;2.92;2.72;;;;;;;;;;5056708;28;20228;-68
2023/01/18 07:20:33;;;;;;;2.85;2.58;;;;;;;;;;5056340;28;20303;-68
2023/01/18 07:23:01;;;;;;;2.88;2.67;;;;;;;;;;5056891;28;20204;-68
2023/01/18 07:25:29;;;;;;;2.42;2.22;;;;;;;;;;5056946;28;20240;-69
2023/01/18 07:27:59;;;;;;;3.03;2.45;;;;;;;;;;5057083;28;20286;-68
2023/01/18 07:30:26;;;;;;;2.80;2.60;;;;;;;;;;5055860;28;20295;-68
2023/01/18 07:32:54;;;;;;;2.88;2.67;;;;;;;;;;5056780;28;20307;-68
2023/01/18 07:35:22;;;;;;;2.50;2.30;;;;;;;;;;5056849;28;20237;-68
2023/01/18 07:37:51;;;;;;;2.35;2.15;;;;;;;;;;5056986;28;20225;-68
2023/01/18 07:40:20;;;;;;;2.92;2.60;;;;;;;;;;5056870;28;20314;-68
2023/01/18 07:42:48;;;;;;;2.55;2.35;;;;;;;;;;5056898;28;20205;-68
2023/01/18 07:45:18;;;;;;;2.60;2.40;;;;;;;;;;5056650;28;20259;-68
2023/01/18 07:47:46;;;;;;;3.05;2.75;;;;;;;;;;5055861;28;20228;-68
2023/01/18 07:50:14;;;;;;;2.70;2.50;;;;;;;;;;5056279;28;20205;-68
2023/01/18 07:52:42;;;;;;;2.50;2.30;;;;;;;;;;5056223;28;20569;-68
2023/01/18 07:55:10;;;;;;;2.65;2.45;;;;;;;;;;5060508;28;20527;-68
2023/01/18 07:57:38;;;;;;;2.58;2.22;;;;;;;;;;5074625;28;20224;-68
2023/01/18 08:00:06;;;;;;;2.80;2.50;;;;;;;;;;5075118;28;20601;-69
2023/01/18 08:02:35;;;;;;;2.80;2.60;;;;;;;;;;5076478;28;20207;-68
2023/01/18 08:05:03;;;;;;;2.78;2.10;;;;;;;;;;5076222;28;20215;-68
2023/01/18 08:07:32;;;;;;;2.55;2.35;;;;;;;;;;5075762;28;20200;-68
2023/01/18 08:10:00;;;;;;;2.42;2.22;;;;;;;;;;5076205;28;20546;-68
2023/01/18 08:12:28;;;;;;;2.58;2.38;;;;;;;;;;5075990;28;20235;-68
2023/01/18 08:14:55;;;;;;;2.63;2.42;;;;;;;;;;5076005;28;20204;-68
2023/01/18 08:17:23;;;;;;;2.78;2.58;;;;;;;;;;5075873;28;20245;-69
2023/01/18 08:19:52;;;;;;;2.55;2.35;;;;;;;;;;5076212;28;20204;-68
2023/01/18 08:22:20;;;;;;;2.53;2.33;;;;;;;;;;5076330;28;20553;-68
2023/01/18 08:24:48;;;;;;;2.65;2.45;;;;;;;;;;5075959;28;20325;-68
2023/01/18 08:27:16;;;;;;;2.70;2.50;;;;;;;;;;5075591;28;20299;-68
2023/01/18 08:29:45;;;;;;;2.50;2.30;;;;;;;;;;5075347;28;20212;-68
2023/01/18 08:32:13;;;;;;;2.50;2.30;;;;;;;;;;5076197;28;20732;-68
2023/01/18 08:34:40;;;;;;;2.65;2.45;;;;;;;;;;5075187;28;20246;-68
2023/01/18 08:37:10;;;;;;;2.70;2.50;;;;;;;;;;5075583;28;20693;-68
2023/01/18 08:39:38;;;;;;;2.80;2.60;;;;;;;;;;5076145;28;20204;-68
2023/01/18 08:42:06;;;;;;;2.63;2.42;;;;;;;;;;5076203;28;20227;-68
2023/01/18 08:44:33;;;;;;;2.72;2.50;;;;;;;;;;5076464;28;20291;-68
2023/01/18 08:47:02;;;;;;;2.72;2.50;;;;;;;;;;5075524;28;20628;-68
2023/01/18 08:49:31;;;;;;;2.80;2.60;;;;;;;;;;5075133;28;20499;-68
2023/01/18 08:51:59;;;;;;;2.45;2.25;;;;;;;;;;5074708;28;20794;-68
2023/01/18 08:54:28;;;;;;;2.80;2.60;;;;;;;;;;5074427;28;20299;-68
2023/01/18 08:56:55;;;;;;;2.83;2.63;;;;;;;;;;5074161;28;20232;-68
2023/01/18 08:59:23;;;;;;;2.72;2.47;;;;;;;;;;5074168;28;20599;-68
2023/01/18 09:01:51;;;;;;;2.90;2.70;;;;;;;;;;5075489;28;20574;-68
2023/01/18 09:04:19;;;;;;;2.70;2.50;;;;;;;;;;5073277;28;20303;-68
2023/01/18 09:06:48;;;;;;;2.25;2.05;;;;;;;;;;5073505;28;20205;-68
2023/01/18 09:09:15;;;;;;;2.50;2.30;;;;;;;;;;5074360;28;20569;-68
2023/01/18 09:11:45;;;;;;;2.70;2.50;;;;;;;;;;5074529;28;20484;-68
2023/01/18 09:14:12;;;;;;;2.50;2.30;;;;;;;;;;5074978;28;20302;-68
2023/01/18 09:16:40;;;;;;;2.75;2.50;;;;;;;;;;5074641;28;20204;-68
2023/01/18 09:19:08;;;;;;;2.33;2.13;;;;;;;;;;5074363;28;20224;-68
2023/01/18 09:21:36;;;;;;;2.55;2.35;;;;;;;;;;5074852;28;20584;-69
2023/01/18 09:24:04;;;;;;;2.45;2.17;;;;;;;;;;5074259;28;20570;-68
2023/01/18 09:26:32;;;;;;;2.20;2.10;;;;;;;;;;5073925;28;20212;-68
2023/01/18 09:29:01;;;;;;;2.50;2.30;;;;;;;;;;5074879;28;20238;-68
2023/01/18 09:31:29;;;;;;;2.83;2.20;;;;;;;;;;5074504;28;20479;-67
2023/01/18 09:33:57;;;;;;;3.40;2.33;;;;;;;;;;5074725;28;20296;-67
2023/01/18 09:36:26;;;;;;;3.38;2.47;;;;;;;;;;5074318;28;20718;-68
2023/01/18 09:38:54;;;;;;;3.58;2.65;;;;;;;;;;5074331;28;20220;-68
2023/01/18 09:41:29;;;;;;;2.65;2.45;;;;;;;;;;5074386;28;20207;-68
2023/01/18 09:43:59;;;;;;;2.58;2.38;;;;;;;;;;5074047;28;20207;-67
2023/01/18 09:46:28;;;;;;;2.60;2.40;;;;;;;;;;5074405;28;20231;-67
2023/01/18 09:48:57;;;;;;;2.42;2.13;;;;;;;;;;5074511;28;20199;-67
2023/01/18 09:51:29;;;;;;;2.42;2.15;;;;;;;;;;5074074;28;20265;-67
2023/01/18 09:54:02;;;;;;;4.20;2.20;;;;;;;;;;5073946;28;20228;-67
2023/01/18 09:56:33;;;;;;;2.83;2.50;;;;;;;;;;5074277;28;20236;-67
2023/01/18 09:59:06;;;;;;;2.60;2.40;;;;;;;;;;5074740;28;20230;-67
2023/01/18 10:01:36;;;;;;;3.20;2.60;;;;;;;;;;5074612;28;20205;-67
2023/01/18 10:04:06;;;;;;;2.78;2.47;;;;;;;;;;5074145;28;20236;-67
2023/01/18 10:06:38;;;;;;;4.03;2.40;;;;;;;;;;5074061;28;20741;-67
2023/01/18 10:09:07;;;;;;;2.40;2.20;;;;;;;;;;5074631;28;20200;-67
2023/01/18 10:11:42;;;;;;;2.60;2.40;;;;;;;;;;5074116;28;20212;-67
2023/01/18 10:14:16;;;;;;;2.85;2.15;;;;;;;;;;5073935;28;20295;-67
2023/01/18 10:16:48;;;;;;;2.45;2.20;;;;;;;;;;5073720;28;20246;-68
2023/01/18 10:19:17;;;;;;;5.13;2.55;;;;;;;;;;5073588;28;20309;-68
2023/01/18 10:21:48;;;;;;;8.50;2.60;;;;;;;;;;5074082;28;20208;-66
2023/01/18 10:24:25;;;;;;;2.70;2.50;;;;;;;;;;5074699;28;20213;-66
2023/01/18 10:26:54;;;;;;;3.30;2.45;;;;;;;;;;5070136;28;20193;-65
2023/01/18 10:29:25;;;;;;;3.40;2.30;;;;;;;;;;5072583;28;20291;-66
2023/01/18 10:31:58;;;;;;;6.38;2.30;;;;;;;;;;5071240;28;20200;-66
2023/01/18 10:34:28;;;;;;;4.20;2.47;;;;;;;;;;5073603;28;20232;-66
2023/01/18 10:36:58;;;;;;;2.42;2.22;;;;;;;;;;5074367;28;20216;-66
2023/01/18 10:39:28;;;;;;;3.03;2.33;;;;;;;;;;5076527;28;20216;-66
2023/01/18 10:41:58;;;;;;;2.47;2.25;;;;;;;;;;5076617;28;20208;-66
2023/01/18 10:44:25;;;;;;;3.88;2.30;;;;;;;;;;5077720;28;20474;-66
2023/01/18 10:46:58;;;;;;;3.60;2.47;;;;;;;;;;5077713;28;20214;-66
2023/01/18 10:49:35;;;;;;;3.45;2.33;;;;;;;;;;5077900;28;20209;-65
2023/01/18 10:52:21;;;;;;;4.30;2.80;;;;;;;;;;5077563;28;20603;-66
2023/01/18 10:54:54;;;;;;;4.18;2.58;;;;;;;;;;5076469;28;20266;-65
2023/01/18 10:57:25;;;;;;;4.50;2.50;;;;;;;;;;5077013;28;20236;-66
2023/01/18 10:59:53;;;;;;;6.70;2.80;;;;;;;;;;5077043;28;20228;-66
2023/01/18 11:02:26;;;;;;;3.53;2.15;;;;;;;;;;5076472;28;20266;-65
2023/01/18 11:05:02;;;;;;;5.30;2.75;;;;;;;;;;5076194;28;20203;-65
2023/01/18 11:07:30;;;;;;;3.90;2.03;;;;;;;;;;5073036;28;20289;-66
2023/01/18 11:10:03;;;;;;;6.05;2.63;;;;;;;;;;5074328;28;20193;-65
2023/01/18 11:12:36;;;;;;;5.15;2.40;;;;;;;;;;5073606;28;20232;-66
2023/01/18 11:15:22;;;;;;;4.22;2.85;;;;;;;;;;5074124;28;20209;-65
2023/01/18 11:18:02;;;;;;;6.25;2.60;;;;;;;;;;5073869;28;20196;-65
2023/01/18 11:20:35;;;;;;;6.43;2.63;;;;;;;;;;5076075;28;20200;-67
2023/01/18 11:23:04;;;;;;;5.32;2.25;;;;;;;;;;5076142;28;20204;-66
2023/01/18 11:25:44;;;;;;;6.95;2.50;;;;;;;;;;5076740;28;20214;-65
2023/01/18 11:28:15;;;;;;;6.38;2.45;;;;;;;;;;5075795;28;20227;-67
2023/01/18 11:30:50;;;;;;;4.10;2.60;;;;;;;;;;5076122;28;20200;-67
2023/01/18 11:33:19;;;;;;;4.00;2.33;;;;;;;;;;5075084;28;20210;-67
2023/01/18 11:35:47;;;;;;;8.57;2.67;;;;;;;;;;5075687;28;20236;-67
2023/01/18 11:38:18;;;;;;;3.92;2.22;;;;;;;;;;5076017;28;20515;-68
2023/01/18 11:40:47;;;;;;;3.35;2.00;;;;;;;;;;5075814;28;20811;-68
2023/01/18 11:43:16;;;;;;;5.80;2.60;;;;;;;;;;5075757;28;20200;-68
2023/01/18 11:45:46;;;;;;;3.97;2.38;;;;;;;;;;5075870;28;20212;-68
2023/01/18 11:48:22;;;;;;;3.15;2.05;;;;;;;;;;5075985;28;20211;-68
2023/01/18 11:50:52;;;;;;;3.95;2.25;;;;;;;;;;5075535;28;20210;-68
2023/01/18 11:53:24;;;;;;;3.65;2.25;;;;;;;;;;5073862;28;20261;-69
2023/01/18 11:55:55;;;;;;;3.90;2.20;;;;;;;;;;5074553;28;20838;-67
2023/01/18 11:58:25;;;;;;;3.78;2.30;;;;;;;;;;5074444;28;20197;-68
2023/01/18 12:00:57;;;;;;;4.00;2.20;;;;;;;;;;5074955;28;20201;-69
2023/01/18 12:03:34;;;;;;;3.05;2.17;;;;;;;;;;5075096;28;20270;-66
2023/01/18 12:06:07;;;;;;;3.58;2.55;;;;;;;;;;5075870;28;20205;-66
2023/01/18 12:08:49;;;;;;;4.00;2.00;;;;;;;;;;5075325;28;20586;-66
2023/01/18 12:11:20;;;;;;;2.47;2.22;;;;;;;;;;5075584;28;20596;-66
2023/01/18 12:13:50;;;;;;;3.10;2.10;;;;;;;;;;5075226;28;20311;-66
2023/01/18 12:16:21;;;;;;;5.55;2.42;;;;;;;;;;5073875;28;20270;-65
2023/01/18 12:19:01;;;;;;;4.20;2.30;;;;;;;;;;5075036;28;20288;-65
2023/01/18 12:21:35;;;;;;;3.60;2.10;;;;;;;;;;5075509;28;20484;-66
2023/01/18 12:24:13;;;;;;;3.20;2.30;;;;;;;;;;5074760;28;20224;-66
2023/01/18 12:26:51;;;;;;;3.15;2.13;;;;;;;;;;5074863;28;20212;-66
2023/01/18 12:29:39;;;;;;;2.50;2.08;;;;;;;;;;5074802;28;20321;-66
2023/01/18 12:32:16;;;;;;;2.13;1.83;;;;;;;;;;5049159;28;20877;-66
2023/01/18 12:34:47;;;;;;;2.72;1.95;;;;;;;;;;5074123;28;20630;-67
2023/01/18 12:37:26;;;;;;;3.85;2.00;;;;;;;;;;5072975;28;20669;-66
2023/01/18 12:39:57;;;;;;;4.05;1.90;;;;;;;;;;5073686;28;20243;-66
2023/01/18 12:42:31;;;;;;;4.05;1.92;;;;;;;;;;5074415;28;20529;-66
2023/01/18 12:45:06;;;;;;;3.58;2.05;;;;;;;;;;5074184;28;20204;-66
2023/01/18 12:47:35;;;;;;;3.42;2.13;;;;;;;;;;5073816;28;20235;-66
2023/01/18 12:50:07;;;;;;;4.63;2.10;;;;;;;;;;5072272;28;20200;-66
2023/01/18 12:52:41;;;;;;;2.70;1.60;;;;;;;;;;5072635;28;20204;-66
2023/01/18 12:55:15;;;;;;;3.60;1.90;;;;;;;;;;5073987;28;20270;-66
2023/01/18 12:57:43;;;;;;;2.60;1.83;;;;;;;;;;5073452;28;20632;-66
2023/01/18 13:00:16;;;;;;;3.10;2.28;;;;;;;;;;5074615;28;20224;-66
2023/01/18 13:02:47;;;;;;;2.75;1.88;;;;;;;;;;5073045;28;20212;-66
2023/01/18 13:05:19;;;;;;;2.28;2.00;;;;;;;;;;5074377;28;20196;-66
2023/01/18 13:07:50;;;;;;;4.18;2.05;;;;;;;;;;5074374;28;20204;-66
2023/01/18 13:10:20;;;;;;;40.17;36.78;;;;;;;;;;5073971;28;20228;-66
2023/01/18 13:12:49;;;;;;;46.58;42.70;;;;;;;;;;5074402;28;20200;-66
2023/01/18 13:15:21;;;;;;;36.60;33.35;;;;;;;;;;5073708;28;20231;-66
2023/01/18 13:17:53;;;;;;;31.27;28.58;;;;;;;;;;5073540;28;20219;-66
2023/01/18 13:20:24;;;;;;;30.13;27.63;;;;;;;;;;5073453;28;20218;-66
2023/01/18 13:22:57;;;;;;;29.23;26.75;;;;;;;;;;5073878;28;20200;-66
2023/01/18 13:25:30;;;;;;;27.65;25.33;;;;;;;;;;5072079;28;20212;-66
2023/01/18 13:27:59;;;;;;;27.13;24.88;;;;;;;;;;5073646;28;20204;-67
2023/01/18 13:30:27;;;;;;;24.08;22.17;;;;;;;;;;5073564;28;20212;-66
2023/01/18 13:32:55;;;;;;;23.42;21.38;;;;;;;;;;5073734;28;20204;-66
2023/01/18 13:35:29;;;;;;;23.13;21.27;;;;;;;;;;5073243;28;20197;-66
2023/01/18 13:38:00;;;;;;;21.30;19.50;;;;;;;;;;5073656;28;20250;-66
2023/01/18 13:40:33;;;;;;;20.25;18.63;;;;;;;;;;5086907;28;20223;-66
2023/01/18 13:43:01;;;;;;;19.08;17.58;;;;;;;;;;5094043;28;20262;-66
2023/01/18 13:45:30;;;;;;;17.70;16.23;;;;;;;;;;5087772;28;20223;-66
2023/01/18 13:48:06;;;;;;;17.67;16.35;;;;;;;;;;5073712;28;20236;-66
2023/01/18 13:50:46;;;;;;;17.05;15.48;;;;;;;;;;5053774;28;20197;-66
2023/01/18 13:53:23;;;;;;;16.60;15.23;;;;;;;;;;5053337;28;20266;-66
2023/01/18 13:56:11;;;;;;;15.32;14.05;;;;;;;;;;5052922;28;20303;-66
2023/01/18 13:58:44;;;;;;;14.50;13.40;;;;;;;;;;5053441;28;20232;-67
2023/01/18 14:01:20;;;;;;;13.60;12.50;;;;;;;;;;5052485;28;20212;-66
2023/01/18 14:03:49;;;;;;;14.50;13.35;;;;;;;;;;5053043;28;20506;-66
2023/01/18 14:06:24;;;;;;;12.55;11.65;;;;;;;;;;5052695;28;20209;-66
2023/01/18 14:08:55;;;;;;;11.63;10.73;;;;;;;;;;5053078;28;20232;-66
2023/01/18 14:11:24;;;;;;;11.15;10.35;;;;;;;;;;5053240;28;20205;-66
2023/01/18 14:14:02;;;;;;;10.95;10.05;;;;;;;;;;5067986;28;20299;-66
2023/01/18 14:16:34;;;;;;;10.35;9.65;;;;;;;;;;5076388;28;20204;-66
2023/01/18 14:19:04;;;;;;;10.32;9.45;;;;;;;;;;5077617;28;20571;-67
2023/01/18 14:21:43;;;;;;;9.70;9.00;;;;;;;;;;5076983;28;20243;-66
2023/01/18 14:24:20;;;;;;;8.95;8.35;;;;;;;;;;5076232;28;20208;-66
2023/01/18 14:26:48;;;;;;;8.82;8.20;;;;;;;;;;5075814;28;20599;-66
2023/01/18 14:29:18;;;;;;;8.70;8.10;;;;;;;;;;5076964;28;20204;-66
2023/01/18 14:31:47;;;;;;;8.30;7.70;;;;;;;;;;5076009;28;20212;-66
2023/01/18 14:34:34;;;;;;;8.07;7.38;;;;;;;;;;5076678;28;20204;-66
2023/01/18 14:37:01;;;;;;;7.10;6.60;;;;;;;;;;5044523;28;20205;-66
2023/01/18 14:39:32;;;;;;;7.55;6.95;;;;;;;;;;5056301;28;20223;-66
2023/01/18 14:42:02;;;;;;;7.57;7.07;;;;;;;;;;5072238;28;20201;-66
2023/01/18 14:44:36;;;;;;;6.85;6.35;;;;;;;;;;5077724;28;20200;-67
2023/01/18 14:47:05;;;;;;;10.30;9.52;;;;;;;;;;5076607;28;20200;-66
2023/01/18 14:49:36;;;;;;;9.52;8.82;;;;;;;;;;5076589;28;20211;-66
2023/01/18 14:52:06;;;;;;;8.73;8.05;;;;;;;;;;5076359;28;20215;-66
2023/01/18 14:54:35;;;;;;;8.55;7.95;;;;;;;;;;5076050;28;20816;-66
2023/01/18 14:57:03;;;;;;;7.78;7.28;;;;;;;;;;5076357;28;20485;-66
2023/01/18 14:59:32;;;;;;;7.60;7.00;;;;;;;;;;5076539;28;20224;-66
2023/01/18 15:02:00;;;;;;;7.35;6.82;;;;;;;;;;5076254;28;20207;-67
2023/01/18 15:04:29;;;;;;;7.30;6.80;;;;;;;;;;5075900;28;20212;-66
2023/01/18 15:06:58;;;;;;;7.05;6.55;;;;;;;;;;5076148;28;20253;-66
2023/01/18 15:09:26;;;;;;;7.07;6.57;;;;;;;;;;5075006;28;20196;-66
2023/01/18 15:11:57;;;;;;;6.57;6.07;;;;;;;;;;5076293;28;20204;-66
2023/01/18 15:14:26;;;;;;;6.30;5.90;;;;;;;;;;5075783;28;20204;-67
2023/01/18 15:16:55;;;;;;;6.30;5.90;;;;;;;;;;5075211;28;20247;-66
2023/01/18 15:19:24;;;;;;;5.90;5.50;;;;;;;;;;5075037;28;20204;-66
2023/01/18 15:21:52;;;;;;;6.18;5.78;;;;;;;;;;5076006;28;20576;-66
2023/01/18 15:24:21;;;;;;;6.10;5.68;;;;;;;;;;5075167;28;20303;-67
2023/01/18 15:26:52;;;;;;;5.80;5.40;;;;;;;;;;5074678;28;20228;-67
2023/01/18 15:29:23;;;;;;;5.45;5.07;;;;;;;;;;5076516;28;20227;-67